Main page
METAR-TAF:

METAR-TAF

Airports :

Zenata – Messali El Hadj Airport

Tlemcen, Algeria

latitude: 35-01N, longitude: 001-28W, elevation: 247 m

Current weather observation

The report was made 34 minutes ago, at 07:30 UTC
Calm wind
Temperature 20°C
Humidity 43%
Pressure 1020 hPa
Visibility 10 km or more
no clouds below 1500 m and no cumulonimbus

METAR: DAON 220730Z 00000KT CAVOK 20/07 Q1020

Time: 09:04 (08:04 UTC)

Forecast

The report was made 3 hours and 4 minutes ago, at 05:00 UTC
Forecast valid from 22 at 06 UTC to 23 at 06 UTC
Wind 6 kt from the East/Southeast
Visibility 10 km or more
no clouds below 1500 m and no cumulonimbus
Becoming
from 22 at 06 UTC to 22 at 09 UTC
Wind 14 kt from the North
Becoming
from 22 at 20 UTC to 22 at 24 UTC
Wind 2 kt from variable directions

TAF: DAON 220500Z 2206/2306 12006KT CAVOK BECMG 2206/2209 36014KT BECMG 2220/2224 VRB02KT

Weather observations and forecasts of more than 4000 airports (METAR and TAF reports).

The available stations are represented by yellow and red dots on the map.

Hover mouse over dot to see the name of the station.

Then click to see weather observations and forecasts.

To change the map : click on the green buttons with a black cross to zoom in, on the green button with a dash to zoom out, or on the green arrows for adjacent maps.


METAR-TAF: